sensor_id;sensor_type;location;lat;lon;timestamp;temperature;humidity
49549;DHT22;35450;44.518;7.466;2022-08-11T00:01:10;25.00;75.40
49549;DHT22;35450;44.518;7.466;2022-08-11T00:04:16;24.90;75.30
49549;DHT22;35450;44.518;7.466;2022-08-11T00:07:20;24.80;75.20
49549;DHT22;35450;44.518;7.466;2022-08-11T00:10:27;24.90;73.70
49549;DHT22;35450;44.518;7.466;2022-08-11T00:13:37;24.80;74.60
49549;DHT22;35450;44.518;7.466;2022-08-11T00:16:42;24.80;74.50
49549;DHT22;35450;44.518;7.466;2022-08-11T00:19:48;24.80;74.80
49549;DHT22;35450;44.518;7.466;2022-08-11T00:22:52;24.80;75.20
49549;DHT22;35450;44.518;7.466;2022-08-11T00:26:06;24.80;74.60
49549;DHT22;35450;44.518;7.466;2022-08-11T00:29:11;24.80;75.60
49549;DHT22;35450;44.518;7.466;2022-08-11T00:32:15;24.80;74.20
49549;DHT22;35450;44.518;7.466;2022-08-11T00:35:25;24.90;73.50
49549;DHT22;35450;44.518;7.466;2022-08-11T00:38:33;25.00;73.20
49549;DHT22;35450;44.518;7.466;2022-08-11T00:45:19;25.00;72.30
49549;DHT22;35450;44.518;7.466;2022-08-11T00:48:39;25.00;72.10
49549;DHT22;35450;44.518;7.466;2022-08-11T01:05:56;24.80;72.30
49549;DHT22;35450;44.518;7.466;2022-08-11T01:13:04;24.80;72.40
49549;DHT22;35450;44.518;7.466;2022-08-11T01:43:51;24.70;71.90
49549;DHT22;35450;44.518;7.466;2022-08-11T01:47:41;24.70;72.00
49549;DHT22;35450;44.518;7.466;2022-08-11T01:54:08;24.70;71.20
49549;DHT22;35450;44.518;7.466;2022-08-11T02:00:49;24.70;71.60
49549;DHT22;35450;44.518;7.466;2022-08-11T02:04:03;24.70;72.10
49549;DHT22;35450;44.518;7.466;2022-08-11T02:10:38;24.80;73.80
49549;DHT22;35450;44.518;7.466;2022-08-11T02:21:07;24.30;79.90
49549;DHT22;35450;44.518;7.466;2022-08-11T02:24:59;24.20;79.20
49549;DHT22;35450;44.518;7.466;2022-08-11T02:28:23;24.10;81.00
49549;DHT22;35450;44.518;7.466;2022-08-11T02:39:03;23.50;83.90
49549;DHT22;35450;44.518;7.466;2022-08-11T02:45:53;23.40;83.50
49549;DHT22;35450;44.518;7.466;2022-08-11T02:48:59;23.20;86.60
49549;DHT22;35450;44.518;7.466;2022-08-11T03:09:10;23.00;90.80
49549;DHT22;35450;44.518;7.466;2022-08-11T03:16:31;22.90;91.30
49549;DHT22;35450;44.518;7.466;2022-08-11T03:20:19;23.00;92.00
49549;DHT22;35450;44.518;7.466;2022-08-11T03:23:57;22.90;91.80
49549;DHT22;35450;44.518;7.466;2022-08-11T03:27:08;22.80;91.70
49549;DHT22;35450;44.518;7.466;2022-08-11T03:30:25;22.80;90.40
49549;DHT22;35450;44.518;7.466;2022-08-11T03:33:36;22.50;91.10
49549;DHT22;35450;44.518;7.466;2022-08-11T03:48:07;22.00;91.60
49549;DHT22;35450;44.518;7.466;2022-08-11T03:51:31;22.10;91.20
49549;DHT22;35450;44.518;7.466;2022-08-11T04:15:58;21.90;91.20
49549;DHT22;35450;44.518;7.466;2022-08-11T04:19:37;21.90;91.40
49549;DHT22;35450;44.518;7.466;2022-08-11T05:16:08;22.00;91.30
49549;DHT22;35450;44.518;7.466;2022-08-11T05:19:31;22.10;91.20
49549;DHT22;35450;44.518;7.466;2022-08-11T05:22:54;22.10;90.50
49549;DHT22;35450;44.518;7.466;2022-08-11T05:26:20;22.20;89.70
49549;DHT22;35450;44.518;7.466;2022-08-11T05:30:19;22.30;88.20
49549;DHT22;35450;44.518;7.466;2022-08-11T05:33:44;22.50;89.80
49549;DHT22;35450;44.518;7.466;2022-08-11T05:40:24;22.70;90.30
49549;DHT22;35450;44.518;7.466;2022-08-11T05:43:48;22.80;89.80
49549;DHT22;35450;44.518;7.466;2022-08-11T05:47:23;22.90;89.50
49549;DHT22;35450;44.518;7.466;2022-08-11T05:50:56;22.90;89.50
49549;DHT22;35450;44.518;7.466;2022-08-11T05:54:19;22.90;90.40
49549;DHT22;35450;44.518;7.466;2022-08-11T05:57:42;23.00;90.30
49549;DHT22;35450;44.518;7.466;2022-08-11T06:00:46;23.00;90.60
49549;DHT22;35450;44.518;7.466;2022-08-11T06:03:54;23.00;90.20
49549;DHT22;35450;44.518;7.466;2022-08-11T06:07:17;23.10;88.10
49549;DHT22;35450;44.518;7.466;2022-08-11T06:10:35;23.10;88.80
49549;DHT22;35450;44.518;7.466;2022-08-11T06:13:46;23.10;90.00
49549;DHT22;35450;44.518;7.466;2022-08-11T06:16:55;23.20;89.10
49549;DHT22;35450;44.518;7.466;2022-08-11T06:20:05;23.30;87.40
49549;DHT22;35450;44.518;7.466;2022-08-11T06:23:10;23.30;87.20
49549;DHT22;35450;44.518;7.466;2022-08-11T06:26:14;23.40;86.70
49549;DHT22;35450;44.518;7.466;2022-08-11T06:29:19;23.50;87.50
49549;DHT22;35450;44.518;7.466;2022-08-11T06:32:27;23.60;87.90
49549;DHT22;35450;44.518;7.466;2022-08-11T06:35:45;23.60;86.50
49549;DHT22;35450;44.518;7.466;2022-08-11T06:46:05;23.70;85.40
49549;DHT22;35450;44.518;7.466;2022-08-11T06:49:12;23.80;84.90
49549;DHT22;35450;44.518;7.466;2022-08-11T06:52:36;23.80;82.80
49549;DHT22;35450;44.518;7.466;2022-08-11T06:55:44;23.90;78.70
49549;DHT22;35450;44.518;7.466;2022-08-11T06:59:25;23.90;77.80
49549;DHT22;35450;44.518;7.466;2022-08-11T07:09:32;24.00;83.40
49549;DHT22;35450;44.518;7.466;2022-08-11T07:13:00;23.80;84.70
49549;DHT22;35450;44.518;7.466;2022-08-11T07:16:29;23.90;85.00
49549;DHT22;35450;44.518;7.466;2022-08-11T07:19:33;23.90;85.40
49549;DHT22;35450;44.518;7.466;2022-08-11T07:22:58;23.90;84.80
49549;DHT22;35450;44.518;7.466;2022-08-11T07:26:24;24.00;84.40
49549;DHT22;35450;44.518;7.466;2022-08-11T07:29:48;24.00;82.50
49549;DHT22;35450;44.518;7.466;2022-08-11T07:32:56;24.10;82.60
49549;DHT22;35450;44.518;7.466;2022-08-11T07:36:03;24.20;80.80
49549;DHT22;35450;44.518;7.466;2022-08-11T07:39:12;24.30;81.40
49549;DHT22;35450;44.518;7.466;2022-08-11T07:42:21;24.30;81.10
49549;DHT22;35450;44.518;7.466;2022-08-11T07:45:27;24.20;82.10
49549;DHT22;35450;44.518;7.466;2022-08-11T07:48:51;24.20;81.10
49549;DHT22;35450;44.518;7.466;2022-08-11T07:52:14;24.20;82.30
49549;DHT22;35450;44.518;7.466;2022-08-11T07:55:33;24.30;78.60
49549;DHT22;35450;44.518;7.466;2022-08-11T07:58:38;24.40;78.10
49549;DHT22;35450;44.518;7.466;2022-08-11T08:02:01;24.40;79.30
49549;DHT22;35450;44.518;7.466;2022-08-11T08:05:24;24.40;78.00
49549;DHT22;35450;44.518;7.466;2022-08-11T08:08:47;24.50;76.00
49549;DHT22;35450;44.518;7.466;2022-08-11T08:12:10;24.50;78.20
49549;DHT22;35450;44.518;7.466;2022-08-11T08:15:34;24.50;76.50
49549;DHT22;35450;44.518;7.466;2022-08-11T08:18:57;24.60;76.20
49549;DHT22;35450;44.518;7.466;2022-08-11T08:22:02;24.50;75.30
49549;DHT22;35450;44.518;7.466;2022-08-11T08:25:06;24.60;75.40
49549;DHT22;35450;44.518;7.466;2022-08-11T08:28:15;24.70;73.90
49549;DHT22;35450;44.518;7.466;2022-08-11T08:31:20;24.70;73.30
49549;DHT22;35450;44.518;7.466;2022-08-11T08:34:25;24.70;73.90
49549;DHT22;35450;44.518;7.466;2022-08-11T08:37:30;24.90;74.00
49549;DHT22;35450;44.518;7.466;2022-08-11T08:40:37;24.90;73.20
49549;DHT22;35450;44.518;7.466;2022-08-11T08:43:45;24.90;72.70
49549;DHT22;35450;44.518;7.466;2022-08-11T08:46:57;25.00;72.70
49549;DHT22;35450;44.518;7.466;2022-08-11T08:50:10;25.00;72.20
49549;DHT22;35450;44.518;7.466;2022-08-11T08:53:19;25.00;72.60
49549;DHT22;35450;44.518;7.466;2022-08-11T08:56:26;25.00;72.80
49549;DHT22;35450;44.518;7.466;2022-08-11T08:59:33;25.00;71.90
49549;DHT22;35450;44.518;7.466;2022-08-11T09:02:39;25.00;71.90
49549;DHT22;35450;44.518;7.466;2022-08-11T09:05:43;25.10;72.00
49549;DHT22;35450;44.518;7.466;2022-08-11T09:08:47;25.20;72.30
49549;DHT22;35450;44.518;7.466;2022-08-11T09:11:52;25.20;72.20
49549;DHT22;35450;44.518;7.466;2022-08-11T09:14:57;25.30;71.70
49549;DHT22;35450;44.518;7.466;2022-08-11T09:18:08;25.30;70.80
49549;DHT22;35450;44.518;7.466;2022-08-11T09:21:14;25.40;70.90
49549;DHT22;35450;44.518;7.466;2022-08-11T09:24:19;25.40;71.50
49549;DHT22;35450;44.518;7.466;2022-08-11T09:27:42;25.50;71.00
49549;DHT22;35450;44.518;7.466;2022-08-11T09:30:49;25.50;70.90
49549;DHT22;35450;44.518;7.466;2022-08-11T09:33:58;25.60;70.90
49549;DHT22;35450;44.518;7.466;2022-08-11T09:37:04;25.60;69.90
49549;DHT22;35450;44.518;7.466;2022-08-11T09:40:27;25.60;69.80
49549;DHT22;35450;44.518;7.466;2022-08-11T09:43:39;25.60;69.20
49549;DHT22;35450;44.518;7.466;2022-08-11T09:47:02;25.60;69.40
49549;DHT22;35450;44.518;7.466;2022-08-11T09:50:08;25.70;69.10
49549;DHT22;35450;44.518;7.466;2022-08-11T09:53:15;25.70;69.50
49549;DHT22;35450;44.518;7.466;2022-08-11T09:56:21;25.80;69.80
49549;DHT22;35450;44.518;7.466;2022-08-11T09:59:46;25.80;68.90
49549;DHT22;35450;44.518;7.466;2022-08-11T10:02:51;25.80;67.10
49549;DHT22;35450;44.518;7.466;2022-08-11T10:06:00;25.80;65.90
49549;DHT22;35450;44.518;7.466;2022-08-11T10:09:24;25.80;66.70
49549;DHT22;35450;44.518;7.466;2022-08-11T10:12:32;25.90;64.60
49549;DHT22;35450;44.518;7.466;2022-08-11T10:15:38;25.90;64.20
49549;DHT22;35450;44.518;7.466;2022-08-11T10:18:49;25.90;63.30
49549;DHT22;35450;44.518;7.466;2022-08-11T10:21:56;26.00;61.90
49549;DHT22;35450;44.518;7.466;2022-08-11T10:25:20;26.10;61.40
49549;DHT22;35450;44.518;7.466;2022-08-11T10:28:43;26.10;60.20
49549;DHT22;35450;44.518;7.466;2022-08-11T10:31:48;26.10;60.30
49549;DHT22;35450;44.518;7.466;2022-08-11T10:35:10;26.10;60.50
49549;DHT22;35450;44.518;7.466;2022-08-11T10:38:17;26.10;60.90
49549;DHT22;35450;44.518;7.466;2022-08-11T10:41:22;26.20;60.90
49549;DHT22;35450;44.518;7.466;2022-08-11T10:44:50;26.20;61.30
49549;DHT22;35450;44.518;7.466;2022-08-11T10:47:55;26.20;61.30
49549;DHT22;35450;44.518;7.466;2022-08-11T10:51:00;26.30;61.50
49549;DHT22;35450;44.518;7.466;2022-08-11T10:54:17;26.30;61.80
49549;DHT22;35450;44.518;7.466;2022-08-11T10:57:40;26.20;62.20
49549;DHT22;35450;44.518;7.466;2022-08-11T11:01:04;26.30;64.20
49549;DHT22;35450;44.518;7.466;2022-08-11T11:04:16;26.30;63.20
49549;DHT22;35450;44.518;7.466;2022-08-11T11:07:23;26.30;62.40
49549;DHT22;35450;44.518;7.466;2022-08-11T11:10:30;26.40;62.60
49549;DHT22;35450;44.518;7.466;2022-08-11T11:13:35;26.30;62.40
49549;DHT22;35450;44.518;7.466;2022-08-11T11:16:59;26.40;63.00
49549;DHT22;35450;44.518;7.466;2022-08-11T11:23:43;26.50;62.70
49549;DHT22;35450;44.518;7.466;2022-08-11T11:31:01;26.50;62.70
49549;DHT22;35450;44.518;7.466;2022-08-11T11:37:46;26.70;63.30
49549;DHT22;35450;44.518;7.466;2022-08-11T11:40:52;26.70;62.80
49549;DHT22;35450;44.518;7.466;2022-08-11T11:44:17;26.60;62.80
49549;DHT22;35450;44.518;7.466;2022-08-11T11:47:22;26.60;63.90
49549;DHT22;35450;44.518;7.466;2022-08-11T11:50:35;26.60;63.80
49549;DHT22;35450;44.518;7.466;2022-08-11T11:53:43;26.70;63.60
49549;DHT22;35450;44.518;7.466;2022-08-11T11:56:48;26.70;63.10
49549;DHT22;35450;44.518;7.466;2022-08-11T11:59:56;26.80;63.00
49549;DHT22;35450;44.518;7.466;2022-08-11T12:03:19;26.70;63.00
49549;DHT22;35450;44.518;7.466;2022-08-11T12:06:24;26.80;63.00
49549;DHT22;35450;44.518;7.466;2022-08-11T12:09:30;26.80;62.90
49549;DHT22;35450;44.518;7.466;2022-08-11T12:12:34;26.90;64.00
49549;DHT22;35450;44.518;7.466;2022-08-11T12:15:59;26.90;64.10
49549;DHT22;35450;44.518;7.466;2022-08-11T12:19:14;26.90;63.50
49549;DHT22;35450;44.518;7.466;2022-08-11T12:22:19;27.00;63.50
49549;DHT22;35450;44.518;7.466;2022-08-11T12:25:43;27.00;63.00
49549;DHT22;35450;44.518;7.466;2022-08-11T12:29:09;27.10;63.10
49549;DHT22;35450;44.518;7.466;2022-08-11T12:32:13;27.10;63.40
49549;DHT22;35450;44.518;7.466;2022-08-11T12:35:17;27.10;63.30
49549;DHT22;35450;44.518;7.466;2022-08-11T12:38:22;27.10;63.50
49549;DHT22;35450;44.518;7.466;2022-08-11T12:41:26;27.10;63.10
49549;DHT22;35450;44.518;7.466;2022-08-11T12:44:51;27.20;62.60
49549;DHT22;35450;44.518;7.466;2022-08-11T12:48:20;27.20;62.80
49549;DHT22;35450;44.518;7.466;2022-08-11T12:51:52;27.20;63.00
49549;DHT22;35450;44.518;7.466;2022-08-11T12:55:10;27.20;62.40
49549;DHT22;35450;44.518;7.466;2022-08-11T12:58:15;27.30;62.50
49549;DHT22;35450;44.518;7.466;2022-08-11T13:01:20;27.30;62.60
49549;DHT22;35450;44.518;7.466;2022-08-11T13:04:44;27.40;62.30
49549;DHT22;35450;44.518;7.466;2022-08-11T13:07:56;27.40;61.90
49549;DHT22;35450;44.518;7.466;2022-08-11T13:11:02;27.40;62.10
49549;DHT22;35450;44.518;7.466;2022-08-11T13:14:26;27.40;62.90
49549;DHT22;35450;44.518;7.466;2022-08-11T13:17:31;27.50;62.20
49549;DHT22;35450;44.518;7.466;2022-08-11T13:20:37;27.40;62.20
49549;DHT22;35450;44.518;7.466;2022-08-11T13:23:41;27.50;62.70
49549;DHT22;35450;44.518;7.466;2022-08-11T13:26:46;27.50;62.40
49549;DHT22;35450;44.518;7.466;2022-08-11T13:29:52;27.50;62.10
49549;DHT22;35450;44.518;7.466;2022-08-11T13:33:17;27.50;62.20
49549;DHT22;35450;44.518;7.466;2022-08-11T13:36:23;27.60;62.00
49549;DHT22;35450;44.518;7.466;2022-08-11T13:39:32;27.60;62.10
49549;DHT22;35450;44.518;7.466;2022-08-11T13:42:37;27.60;62.50
49549;DHT22;35450;44.518;7.466;2022-08-11T13:45:44;27.70;61.80
49549;DHT22;35450;44.518;7.466;2022-08-11T13:48:52;27.60;61.10
49549;DHT22;35450;44.518;7.466;2022-08-11T13:51:58;27.60;61.80
49549;DHT22;35450;44.518;7.466;2022-08-11T13:55:03;27.70;61.50
49549;DHT22;35450;44.518;7.466;2022-08-11T13:58:12;27.80;61.40
49549;DHT22;35450;44.518;7.466;2022-08-11T14:01:19;27.80;60.30
49549;DHT22;35450;44.518;7.466;2022-08-11T14:07:43;27.90;61.40
49549;DHT22;35450;44.518;7.466;2022-08-11T14:10:48;27.90;59.50
49549;DHT22;35450;44.518;7.466;2022-08-11T14:14:18;28.00;59.50
49549;DHT22;35450;44.518;7.466;2022-08-11T14:17:24;28.00;60.10
49549;DHT22;35450;44.518;7.466;2022-08-11T14:20:30;28.00;58.60
49549;DHT22;35450;44.518;7.466;2022-08-11T14:23:53;28.00;60.10
49549;DHT22;35450;44.518;7.466;2022-08-11T14:26:59;28.10;59.70
49549;DHT22;35450;44.518;7.466;2022-08-11T14:30:04;28.10;59.20
49549;DHT22;35450;44.518;7.466;2022-08-11T14:33:31;28.10;58.90
49549;DHT22;35450;44.518;7.466;2022-08-11T14:36:42;28.20;59.10
49549;DHT22;35450;44.518;7.466;2022-08-11T14:39:52;28.20;58.50
49549;DHT22;35450;44.518;7.466;2022-08-11T14:42:57;28.30;58.30
49549;DHT22;35450;44.518;7.466;2022-08-11T14:46:20;28.30;58.80
49549;DHT22;35450;44.518;7.466;2022-08-11T14:49:55;28.40;58.80
49549;DHT22;35450;44.518;7.466;2022-08-11T14:53:08;28.50;59.30
49549;DHT22;35450;44.518;7.466;2022-08-11T14:56:12;28.50;59.70
49549;DHT22;35450;44.518;7.466;2022-08-11T14:59:36;28.60;59.70
49549;DHT22;35450;44.518;7.466;2022-08-11T15:02:41;28.60;59.40
49549;DHT22;35450;44.518;7.466;2022-08-11T15:06:04;28.70;59.00
49549;DHT22;35450;44.518;7.466;2022-08-11T15:09:08;28.70;59.10
49549;DHT22;35450;44.518;7.466;2022-08-11T15:12:13;28.80;59.30
49549;DHT22;35450;44.518;7.466;2022-08-11T15:15:21;28.80;58.70
49549;DHT22;35450;44.518;7.466;2022-08-11T15:18:44;28.90;58.70
49549;DHT22;35450;44.518;7.466;2022-08-11T15:21:49;29.00;58.40
49549;DHT22;35450;44.518;7.466;2022-08-11T15:25:12;29.10;58.20
49549;DHT22;35450;44.518;7.466;2022-08-11T15:28:17;29.20;57.60
49549;DHT22;35450;44.518;7.466;2022-08-11T15:31:41;29.30;57.50
49549;DHT22;35450;44.518;7.466;2022-08-11T15:34:50;29.40;56.50
49549;DHT22;35450;44.518;7.466;2022-08-11T15:38:14;29.50;56.50
49549;DHT22;35450;44.518;7.466;2022-08-11T15:41:22;31.00;55.80
49549;DHT22;35450;44.518;7.466;2022-08-11T15:44:58;35.20;50.80
49549;DHT22;35450;44.518;7.466;2022-08-11T15:48:42;38.80;46.10
49549;DHT22;35450;44.518;7.466;2022-08-11T15:51:57;41.50;42.60
49549;DHT22;35450;44.518;7.466;2022-08-11T15:55:06;42.30;40.60
49549;DHT22;35450;44.518;7.466;2022-08-11T15:58:12;43.50;38.80
49549;DHT22;35450;44.518;7.466;2022-08-11T16:01:38;43.20;37.80
49549;DHT22;35450;44.518;7.466;2022-08-11T16:05:05;43.50;37.80
49549;DHT22;35450;44.518;7.466;2022-08-11T16:08:11;40.50;38.40
49549;DHT22;35450;44.518;7.466;2022-08-11T16:11:17;38.00;40.80
49549;DHT22;35450;44.518;7.466;2022-08-11T16:14:22;36.10;42.40
49549;DHT22;35450;44.518;7.466;2022-08-11T16:17:56;34.50;44.60
49549;DHT22;35450;44.518;7.466;2022-08-11T16:21:02;33.10;46.90
49549;DHT22;35450;44.518;7.466;2022-08-11T16:24:08;32.20;48.70
49549;DHT22;35450;44.518;7.466;2022-08-11T16:27:13;31.80;49.50
49549;DHT22;35450;44.518;7.466;2022-08-11T16:30:23;31.60;49.70
49549;DHT22;35450;44.518;7.466;2022-08-11T16:33:28;31.20;50.20
49549;DHT22;35450;44.518;7.466;2022-08-11T16:36:33;31.10;51.30
49549;DHT22;35450;44.518;7.466;2022-08-11T16:39:56;30.80;51.70
49549;DHT22;35450;44.518;7.466;2022-08-11T16:43:02;30.60;52.00
49549;DHT22;35450;44.518;7.466;2022-08-11T16:46:27;30.40;52.40
49549;DHT22;35450;44.518;7.466;2022-08-11T16:49:48;30.30;52.60
49549;DHT22;35450;44.518;7.466;2022-08-11T16:52:54;30.20;52.70
49549;DHT22;35450;44.518;7.466;2022-08-11T16:56:01;30.20;53.70
49549;DHT22;35450;44.518;7.466;2022-08-11T16:59:36;30.20;53.20
49549;DHT22;35450;44.518;7.466;2022-08-11T17:02:45;30.30;52.50
49549;DHT22;35450;44.518;7.466;2022-08-11T17:06:10;30.30;52.30
49549;DHT22;35450;44.518;7.466;2022-08-11T17:09:34;30.10;53.40
49549;DHT22;35450;44.518;7.466;2022-08-11T17:12:58;29.90;55.10
49549;DHT22;35450;44.518;7.466;2022-08-11T17:16:26;29.80;55.60
49549;DHT22;35450;44.518;7.466;2022-08-11T17:19:32;29.80;56.10
49549;DHT22;35450;44.518;7.466;2022-08-11T17:22:38;29.50;56.40
49549;DHT22;35450;44.518;7.466;2022-08-11T17:26:01;29.20;57.30
49549;DHT22;35450;44.518;7.466;2022-08-11T17:29:06;28.80;58.10
49549;DHT22;35450;44.518;7.466;2022-08-11T17:32:13;28.80;58.20
49549;DHT22;35450;44.518;7.466;2022-08-11T17:35:39;28.50;58.50
49549;DHT22;35450;44.518;7.466;2022-08-11T17:38:44;28.30;58.70
49549;DHT22;35450;44.518;7.466;2022-08-11T17:41:51;28.20;58.90
49549;DHT22;35450;44.518;7.466;2022-08-11T17:45:17;28.10;60.10
49549;DHT22;35450;44.518;7.466;2022-08-11T17:48:42;27.90;61.50
49549;DHT22;35450;44.518;7.466;2022-08-11T17:51:47;27.90;61.60
49549;DHT22;35450;44.518;7.466;2022-08-11T17:55:10;27.70;61.00
49549;DHT22;35450;44.518;7.466;2022-08-11T17:58:34;27.60;61.10
49549;DHT22;35450;44.518;7.466;2022-08-11T18:01:59;27.40;61.10
49549;DHT22;35450;44.518;7.466;2022-08-11T18:05:25;27.30;61.20
49549;DHT22;35450;44.518;7.466;2022-08-11T18:08:32;27.20;61.10
49549;DHT22;35450;44.518;7.466;2022-08-11T18:11:56;27.20;61.70
49549;DHT22;35450;44.518;7.466;2022-08-11T18:15:20;27.10;62.80
49549;DHT22;35450;44.518;7.466;2022-08-11T18:18:43;27.00;62.50
49549;DHT22;35450;44.518;7.466;2022-08-11T18:22:08;26.90;62.50
49549;DHT22;35450;44.518;7.466;2022-08-11T18:25:38;26.80;63.00
49549;DHT22;35450;44.518;7.466;2022-08-11T18:29:01;26.80;63.10
49549;DHT22;35450;44.518;7.466;2022-08-11T18:32:27;26.70;63.30
49549;DHT22;35450;44.518;7.466;2022-08-11T18:35:53;26.60;63.00
49549;DHT22;35450;44.518;7.466;2022-08-11T18:39:20;26.70;63.20
49549;DHT22;35450;44.518;7.466;2022-08-11T18:42:46;26.70;63.50
49549;DHT22;35450;44.518;7.466;2022-08-11T18:46:12;26.70;63.60
49549;DHT22;35450;44.518;7.466;2022-08-11T18:49:39;26.60;63.20
49549;DHT22;35450;44.518;7.466;2022-08-11T18:53:03;26.50;63.00
49549;DHT22;35450;44.518;7.466;2022-08-11T18:56:29;26.50;63.70
49549;DHT22;35450;44.518;7.466;2022-08-11T18:59:52;26.50;63.50
49549;DHT22;35450;44.518;7.466;2022-08-11T19:03:15;26.50;63.40
49549;DHT22;35450;44.518;7.466;2022-08-11T19:06:41;26.50;63.50
49549;DHT22;35450;44.518;7.466;2022-08-11T19:10:05;26.30;63.70
49549;DHT22;35450;44.518;7.466;2022-08-11T19:13:30;26.10;64.10
49549;DHT22;35450;44.518;7.466;2022-08-11T19:16:54;26.00;64.40
49549;DHT22;35450;44.518;7.466;2022-08-11T19:20:21;26.00;64.40
49549;DHT22;35450;44.518;7.466;2022-08-11T19:23:48;26.00;64.20
49549;DHT22;35450;44.518;7.466;2022-08-11T19:27:12;26.00;65.00
49549;DHT22;35450;44.518;7.466;2022-08-11T19:30:35;26.00;64.90
49549;DHT22;35450;44.518;7.466;2022-08-11T19:33:58;26.00;64.70
49549;DHT22;35450;44.518;7.466;2022-08-11T19:37:22;25.90;65.30
49549;DHT22;35450;44.518;7.466;2022-08-11T19:40:46;25.70;65.60
49549;DHT22;35450;44.518;7.466;2022-08-11T19:44:09;25.70;65.50
49549;DHT22;35450;44.518;7.466;2022-08-11T19:47:34;25.70;65.40
49549;DHT22;35450;44.518;7.466;2022-08-11T19:50:58;25.60;65.80
49549;DHT22;35450;44.518;7.466;2022-08-11T19:54:27;25.60;66.10
49549;DHT22;35450;44.518;7.466;2022-08-11T19:57:52;25.40;66.10
49549;DHT22;35450;44.518;7.466;2022-08-11T20:01:15;25.30;66.30
49549;DHT22;35450;44.518;7.466;2022-08-11T20:04:37;25.20;66.50
49549;DHT22;35450;44.518;7.466;2022-08-11T20:08:00;25.10;66.50
49549;DHT22;35450;44.518;7.466;2022-08-11T20:11:24;25.00;66.70
49549;DHT22;35450;44.518;7.466;2022-08-11T20:14:48;25.00;67.00
49549;DHT22;35450;44.518;7.466;2022-08-11T20:18:14;25.00;67.70
49549;DHT22;35450;44.518;7.466;2022-08-11T20:21:38;25.00;68.30
49549;DHT22;35450;44.518;7.466;2022-08-11T20:25:04;24.80;67.40
49549;DHT22;35450;44.518;7.466;2022-08-11T20:28:28;24.80;67.30
49549;DHT22;35450;44.518;7.466;2022-08-11T20:31:51;24.80;67.30
49549;DHT22;35450;44.518;7.466;2022-08-11T20:35:14;24.80;67.40
49549;DHT22;35450;44.518;7.466;2022-08-11T20:38:38;24.80;67.40
49549;DHT22;35450;44.518;7.466;2022-08-11T20:42:02;24.70;67.20
49549;DHT22;35450;44.518;7.466;2022-08-11T20:45:26;24.70;68.00
49549;DHT22;35450;44.518;7.466;2022-08-11T20:48:51;24.70;68.30
49549;DHT22;35450;44.518;7.466;2022-08-11T20:52:15;24.70;68.00
49549;DHT22;35450;44.518;7.466;2022-08-11T20:55:39;24.60;68.00
49549;DHT22;35450;44.518;7.466;2022-08-11T20:59:02;24.60;68.00
49549;DHT22;35450;44.518;7.466;2022-08-11T21:02:26;24.60;68.00
49549;DHT22;35450;44.518;7.466;2022-08-11T21:05:49;24.50;68.10
49549;DHT22;35450;44.518;7.466;2022-08-11T21:09:12;24.40;68.40
49549;DHT22;35450;44.518;7.466;2022-08-11T21:12:39;24.40;68.70
49549;DHT22;35450;44.518;7.466;2022-08-11T21:16:05;24.40;69.20
49549;DHT22;35450;44.518;7.466;2022-08-11T21:19:31;24.30;69.50
49549;DHT22;35450;44.518;7.466;2022-08-11T21:23:04;24.20;69.10
49549;DHT22;35450;44.518;7.466;2022-08-11T21:26:29;24.20;69.40
49549;DHT22;35450;44.518;7.466;2022-08-11T21:29:54;24.10;69.70
49549;DHT22;35450;44.518;7.466;2022-08-11T21:33:17;24.10;69.60
49549;DHT22;35450;44.518;7.466;2022-08-11T21:36:42;24.10;69.80
49549;DHT22;35450;44.518;7.466;2022-08-11T21:40:06;24.10;69.60
49549;DHT22;35450;44.518;7.466;2022-08-11T21:43:31;24.10;70.20
49549;DHT22;35450;44.518;7.466;2022-08-11T21:46:54;24.10;70.90
49549;DHT22;35450;44.518;7.466;2022-08-11T21:50:17;23.80;71.50
49549;DHT22;35450;44.518;7.466;2022-08-11T21:53:40;23.80;71.00
49549;DHT22;35450;44.518;7.466;2022-08-11T21:57:04;23.80;71.20
49549;DHT22;35450;44.518;7.466;2022-08-11T22:00:27;23.70;71.30
49549;DHT22;35450;44.518;7.466;2022-08-11T22:03:50;23.70;71.20
49549;DHT22;35450;44.518;7.466;2022-08-11T22:07:13;23.70;71.10
49549;DHT22;35450;44.518;7.466;2022-08-11T22:10:37;23.70;71.50
49549;DHT22;35450;44.518;7.466;2022-08-11T22:14:00;23.70;71.80
49549;DHT22;35450;44.518;7.466;2022-08-11T22:17:24;23.70;71.70
49549;DHT22;35450;44.518;7.466;2022-08-11T22:20:47;23.70;71.80
49549;DHT22;35450;44.518;7.466;2022-08-11T22:24:10;23.70;71.80
49549;DHT22;35450;44.518;7.466;2022-08-11T22:27:33;23.60;72.30
49549;DHT22;35450;44.518;7.466;2022-08-11T22:30:57;23.50;72.60
49549;DHT22;35450;44.518;7.466;2022-08-11T22:34:22;23.60;72.10
49549;DHT22;35450;44.518;7.466;2022-08-11T22:37:45;23.60;72.20
49549;DHT22;35450;44.518;7.466;2022-08-11T22:41:08;23.50;72.20
49549;DHT22;35450;44.518;7.466;2022-08-11T22:44:31;23.60;72.60
49549;DHT22;35450;44.518;7.466;2022-08-11T22:47:54;23.60;72.50
49549;DHT22;35450;44.518;7.466;2022-08-11T22:51:18;23.70;72.60
49549;DHT22;35450;44.518;7.466;2022-08-11T22:54:43;23.80;72.50
49549;DHT22;35450;44.518;7.466;2022-08-11T22:58:07;23.70;73.30
49549;DHT22;35450;44.518;7.466;2022-08-11T23:01:30;23.50;74.00
49549;DHT22;35450;44.518;7.466;2022-08-11T23:04:53;23.40;74.60
49549;DHT22;35450;44.518;7.466;2022-08-11T23:08:16;23.30;74.30
49549;DHT22;35450;44.518;7.466;2022-08-11T23:11:39;23.30;74.50
49549;DHT22;35450;44.518;7.466;2022-08-11T23:15:03;23.50;75.30
49549;DHT22;35450;44.518;7.466;2022-08-11T23:18:26;23.40;74.20
49549;DHT22;35450;44.518;7.466;2022-08-11T23:21:49;23.40;74.20
49549;DHT22;35450;44.518;7.466;2022-08-11T23:25:11;23.40;75.00
49549;DHT22;35450;44.518;7.466;2022-08-11T23:28:34;23.40;75.00
49549;DHT22;35450;44.518;7.466;2022-08-11T23:31:57;23.50;74.50
49549;DHT22;35450;44.518;7.466;2022-08-11T23:35:20;23.50;75.30
49549;DHT22;35450;44.518;7.466;2022-08-11T23:38:42;23.20;76.80
49549;DHT22;35450;44.518;7.466;2022-08-11T23:42:05;23.10;77.70
49549;DHT22;35450;44.518;7.466;2022-08-11T23:45:27;23.10;77.70
49549;DHT22;35450;44.518;7.466;2022-08-11T23:48:56;23.00;77.40
49549;DHT22;35450;44.518;7.466;2022-08-11T23:52:21;23.00;77.20
49549;DHT22;35450;44.518;7.466;2022-08-11T23:55:45;23.00;76.80
49549;DHT22;35450;44.518;7.466;2022-08-11T23:59:09;23.00;77.20
